Time;durP1;ratioP1;P1;durP2;ratioP2;P2;SDS_P1;SDS_P2;PMS_P1;PMS_P2;Temp;Humidity;BMP_temperature;BMP_pressure;BME280_temperature;BME280_humidity;BME280_pressure;Samples;Min_cycle;Max_cycle;Signal;HPM_P1;HPM_P2
2023/05/24 00:01:37;;;;;;;17.40;7.20;;;;;;;14.95;68.38;100822.73;107558;1254;107557;-61
2023/05/24 00:04:05;;;;;;;13.70;7.70;;;;;;;14.87;68.89;100823.24;107556;1253;99205;-61
2023/05/24 00:06:36;;;;;;;26.30;8.80;;;;;;;14.75;68.72;100824.14;107707;1251;99044;-60
2023/05/24 00:09:04;;;;;;;16.70;8.20;;;;;;;14.66;68.40;100824.45;107629;1251;113080;-60
2023/05/24 00:11:33;;;;;;;19.30;8.40;;;;;;;14.64;68.55;100823.77;107613;1251;110163;-59
2023/05/24 00:14:02;;;;;;;13.70;8.50;;;;;;;14.64;68.85;100825.22;107599;1251;108474;-60
2023/05/24 00:16:30;;;;;;;27.30;8.80;;;;;;;14.65;68.94;100822.11;107566;1251;99176;-60
2023/05/24 00:18:59;;;;;;;21.60;8.90;;;;;;;14.65;68.98;100817.59;107642;1251;99046;-60
2023/05/24 00:21:31;;;;;;;22.40;8.50;;;;;;;14.63;69.96;100816.91;107579;1251;112891;-64
2023/05/24 00:23:59;;;;;;;24.30;8.70;;;;;;;14.55;69.80;100823.07;107579;1251;109788;-64
2023/05/24 00:26:28;;;;;;;20.50;8.50;;;;;;;14.52;69.85;100823.25;107565;1251;108256;-63
2023/05/24 00:28:57;;;;;;;20.00;8.80;;;;;;;14.47;69.69;100826.27;107626;1251;99220;-62
2023/05/24 00:31:29;;;;;;;23.10;9.40;;;;;;;14.43;69.55;100825.77;107577;1250;99703;-62
2023/05/24 00:33:58;;;;;;;22.10;9.10;;;;;;;14.40;69.59;100826.77;107480;1250;113293;-61
2023/05/24 00:36:26;;;;;;;18.80;8.30;;;;;;;14.38;69.57;100826.63;107569;1254;109666;-61
2023/05/24 00:38:54;;;;;;;20.10;9.40;;;;;;;14.38;69.73;100827.77;107518;1253;108767;-61
2023/05/24 00:41:23;;;;;;;19.70;8.40;;;;;;;14.37;69.69;100825.30;107623;1253;99178;-60
2023/05/24 00:43:52;;;;;;;22.40;8.60;;;;;;;14.36;69.56;100823.30;107563;1251;99716;-60
2023/05/24 00:46:23;;;;;;;22.30;8.80;;;;;;;14.36;69.53;100821.06;107648;1251;113195;-59
2023/05/24 00:48:53;;;;;;;17.30;9.30;;;;;;;14.38;69.48;100817.67;107580;1254;109099;-61
2023/05/24 00:51:22;;;;;;;16.70;8.20;;;;;;;14.37;69.46;100815.80;107537;1251;108929;-61
2023/05/24 00:53:50;;;;;;;13.20;8.00;;;;;;;14.35;69.40;100817.23;107605;1256;99179;-60
2023/05/24 00:56:19;;;;;;;14.70;8.30;;;;;;;14.31;69.40;100816.40;107599;1253;99178;-60
2023/05/24 00:58:49;;;;;;;16.60;8.20;;;;;;;14.25;69.58;100815.15;107600;1254;112386;-61
2023/05/24 01:01:18;;;;;;;14.90;7.70;;;;;;;14.25;69.59;100816.07;107604;1254;109583;-61
2023/05/24 01:03:46;;;;;;;20.00;8.20;;;;;;;14.24;69.76;100814.90;107552;1252;108399;-60
2023/05/24 01:06:16;;;;;;;16.50;9.00;;;;;;;14.20;69.66;100810.84;107595;1254;99188;-59
2023/05/24 01:08:53;;;;;;;13.20;8.10;;;;;;;14.19;69.72;100808.81;107609;1252;99796;-61
2023/05/24 01:11:52;;;;;;;16.90;8.00;;;;;;;14.17;69.71;100810.83;107547;1253;113544;-60
2023/05/24 01:14:43;;;;;;;17.40;8.70;;;;;;;14.14;69.58;100812.77;107592;1253;109684;-60
2023/05/24 01:17:13;;;;;;;15.40;8.10;;;;;;;14.11;69.49;100814.18;107577;1254;108267;-61
2023/05/24 01:19:51;;;;;;;17.50;8.40;;;;;;;14.04;69.59;100812.17;107641;1252;99365;-60
2023/05/24 01:22:45;;;;;;;18.60;8.40;;;;;;;13.93;69.43;100812.52;107626;1251;99757;-60
2023/05/24 01:25:26;;;;;;;15.20;8.80;;;;;;;13.91;69.71;100813.66;107621;1251;112812;-60
2023/05/24 01:27:56;;;;;;;17.20;8.70;;;;;;;13.89;69.81;100816.70;107590;1251;110149;-61
2023/05/24 01:30:27;;;;;;;11.90;8.50;;;;;;;13.87;69.93;100815.15;107544;1251;108606;-60
2023/05/24 01:32:56;;;;;;;18.30;9.60;;;;;;;13.83;69.81;100810.35;107583;1251;99120;-59
2023/05/24 01:35:24;;;;;;;23.40;10.00;;;;;;;13.79;70.09;100806.57;107661;1251;99080;-61
2023/05/24 01:37:52;;;;;;;16.90;8.60;;;;;;;13.75;70.30;100807.29;107574;1254;112223;-59
2023/05/24 01:40:21;;;;;;;20.40;8.30;;;;;;;13.72;71.40;100806.73;107579;1255;110221;-60
2023/05/24 01:43:05;;;;;;;22.90;8.40;;;;;;;13.64;72.03;100810.05;107508;1256;109168;-59
2023/05/24 01:45:58;;;;;;;15.10;8.50;;;;;;;13.55;71.83;100813.63;107612;1255;99083;-61
2023/05/24 01:49:05;;;;;;;19.60;8.70;;;;;;;13.51;71.62;100815.00;107589;1250;99355;-60
2023/05/24 01:51:43;;;;;;;17.10;9.10;;;;;;;13.50;71.58;100814.16;107600;1251;112059;-61
2023/05/24 01:54:13;;;;;;;19.50;7.90;;;;;;;13.50;71.57;100815.56;107634;1252;110010;-60
2023/05/24 01:56:43;;;;;;;23.90;9.10;;;;;;;13.53;71.80;100813.88;107507;1253;107434;-60
2023/05/24 01:59:13;;;;;;;23.50;8.50;;;;;;;13.55;71.78;100815.45;107659;1251;99269;-61
2023/05/24 02:01:42;;;;;;;20.00;9.30;;;;;;;13.56;71.71;100817.66;107634;1251;99190;-60
2023/05/24 02:04:11;;;;;;;16.30;9.10;;;;;;;13.56;71.64;100814.26;107628;1256;113224;-60
2023/05/24 02:06:39;;;;;;;21.00;9.00;;;;;;;13.57;71.51;100812.23;107642;1251;109212;-60
2023/05/24 02:09:08;;;;;;;16.70;7.70;;;;;;;13.56;71.47;100807.89;107586;1251;107659;-61
2023/05/24 02:11:36;;;;;;;24.10;9.00;;;;;;;13.57;71.33;100804.96;107562;1251;99292;-60
2023/05/24 02:14:06;;;;;;;11.60;7.70;;;;;;;13.55;71.26;100809.36;107580;1251;99125;-60
2023/05/24 02:16:41;;;;;;;18.60;8.20;;;;;;;13.48;71.47;100807.38;107632;1256;113379;-62
2023/05/24 02:19:10;;;;;;;16.80;7.40;;;;;;;13.38;71.48;100805.75;107596;1251;109162;-64
2023/05/24 02:21:41;;;;;;;14.60;7.80;;;;;;;13.31;72.13;100807.52;107566;1251;107636;-61
2023/05/24 02:24:11;;;;;;;14.90;7.70;;;;;;;13.23;71.74;100810.10;107547;1251;99166;-60
2023/05/24 02:26:40;;;;;;;22.30;8.10;;;;;;;13.21;71.76;100813.54;107646;1254;99086;-60
2023/05/24 02:29:10;;;;;;;24.20;8.90;;;;;;;13.19;71.87;100818.77;107645;1251;113775;-61
2023/05/24 02:31:38;;;;;;;18.10;7.20;;;;;;;13.20;71.88;100818.04;107636;1251;109697;-61
2023/05/24 02:34:07;;;;;;;21.30;8.70;;;;;;;13.20;71.84;100818.79;107577;1252;108309;-60
2023/05/24 02:36:36;;;;;;;18.90;8.90;;;;;;;13.20;72.08;100824.32;107587;1253;99164;-64
2023/05/24 02:39:05;;;;;;;19.20;7.80;;;;;;;13.17;72.30;100828.00;107629;1254;99249;-61
2023/05/24 02:41:33;;;;;;;22.10;8.50;;;;;;;13.15;72.29;100830.89;107624;1253;112394;-60
2023/05/24 02:44:02;;;;;;;16.60;9.40;;;;;;;13.18;72.53;100831.90;107612;1252;109604;-61
2023/05/24 02:46:30;;;;;;;14.80;7.50;;;;;;;13.21;72.64;100833.21;107619;1253;107940;-59
2023/05/24 02:48:59;;;;;;;21.10;7.70;;;;;;;13.20;72.78;100834.39;107533;1253;99217;-62
2023/05/24 02:51:27;;;;;;;13.10;7.00;;;;;;;13.19;72.56;100835.58;107557;1254;99209;-60
2023/05/24 02:53:56;;;;;;;16.20;8.10;;;;;;;13.20;72.53;100832.36;107605;1252;112876;-61
2023/05/24 02:56:25;;;;;;;23.50;8.30;;;;;;;13.22;72.82;100832.05;107479;1254;109245;-60
2023/05/24 02:58:55;;;;;;;28.80;8.00;;;;;;;13.23;73.03;100829.89;107602;1251;107796;-63
2023/05/24 03:01:23;;;;;;;28.80;9.20;;;;;;;13.26;73.08;100828.15;107601;1251;99810;-59
2023/05/24 03:03:52;;;;;;;12.90;7.20;;;;;;;13.29;73.02;100829.64;107639;1254;99063;-60
2023/05/24 03:06:21;;;;;;;12.60;7.20;;;;;;;13.29;72.97;100835.61;107621;1251;111995;-61
2023/05/24 03:08:51;;;;;;;17.00;8.20;;;;;;;13.30;73.11;100838.77;107560;1251;109424;-60
2023/05/24 03:11:22;;;;;;;16.50;9.60;;;;;;;13.32;73.09;100842.02;107591;1251;107066;-59
2023/05/24 03:13:51;;;;;;;19.40;9.30;;;;;;;13.38;73.49;100838.71;107530;1253;99212;-62
2023/05/24 03:16:20;;;;;;;17.40;8.50;;;;;;;13.42;73.58;100836.14;107633;1251;99045;-60
2023/05/24 03:18:54;;;;;;;19.00;8.00;;;;;;;13.47;73.69;100833.17;107585;1252;113123;-60
2023/05/24 03:21:23;;;;;;;21.20;8.10;;;;;;;13.51;73.99;100831.22;107592;1255;110046;-61
2023/05/24 03:23:52;;;;;;;17.90;8.00;;;;;;;13.53;74.14;100834.75;107488;1256;108157;-60
2023/05/24 03:26:22;;;;;;;17.70;8.80;;;;;;;13.55;74.08;100834.94;107600;1252;99225;-60
2023/05/24 03:28:53;;;;;;;17.70;8.10;;;;;;;13.59;73.96;100835.79;107625;1251;99688;-59
2023/05/24 03:31:25;;;;;;;;;;;;;;;13.61;73.87;100839.53;107639;1251;113060;-61
2023/05/24 03:33:54;;;;;;;23.10;9.40;;;;;;;13.63;73.72;100839.86;107579;1251;110429;-60
2023/05/24 03:36:25;;;;;;;23.10;8.30;;;;;;;13.67;73.69;100838.55;107598;1251;107830;-60
2023/05/24 03:38:56;;;;;;;15.80;9.00;;;;;;;13.71;73.85;100841.71;107542;1251;99269;-63
2023/05/24 03:41:27;;;;;;;16.00;9.10;;;;;;;13.74;74.06;100839.26;107653;1251;99209;-64
2023/05/24 03:43:59;;;;;;;19.40;10.40;;;;;;;13.78;74.06;100843.39;107580;1254;113081;-62
2023/05/24 03:46:28;;;;;;;20.80;10.90;;;;;;;13.82;74.05;100844.23;107553;1253;108774;-60
2023/05/24 03:48:57;;;;;;;16.30;8.70;;;;;;;13.88;74.12;100846.36;107545;1253;108190;-60
2023/05/24 03:51:28;;;;;;;22.80;8.70;;;;;;;13.95;74.28;100842.81;107514;1252;99874;-59
2023/05/24 03:53:57;;;;;;;23.70;9.00;;;;;;;13.99;74.07;100844.22;107489;1253;99730;-60
2023/05/24 03:56:26;;;;;;;20.60;9.70;;;;;;;14.04;74.08;100841.52;107656;1251;111152;-61
2023/05/24 03:58:56;;;;;;;14.60;8.70;;;;;;;14.06;73.69;100847.41;107588;1251;110016;-61
2023/05/24 04:01:25;;;;;;;16.00;9.10;;;;;;;14.07;73.78;100846.23;107585;1251;107731;-61
2023/05/24 04:04:01;;;;;;;20.20;8.10;;;;;;;14.11;74.06;100849.07;107425;1258;99167;-60
2023/05/24 04:06:29;;;;;;;15.70;8.80;;;;;;;14.15;74.00;100845.79;107503;1254;99710;-60
2023/05/24 04:09:00;;;;;;;17.90;9.80;;;;;;;14.20;74.12;100846.20;107466;1251;113639;-61
2023/05/24 04:11:29;;;;;;;24.10;9.30;;;;;;;14.26;74.52;100847.20;107651;1252;110012;-62
2023/05/24 04:14:00;;;;;;;24.60;8.60;;;;;;;14.29;74.24;100847.65;107611;1251;108731;-62
2023/05/24 04:16:32;;;;;;;18.00;8.80;;;;;;;14.34;74.33;100848.92;107506;1251;99031;-60
2023/05/24 04:19:04;;;;;;;20.70;9.40;;;;;;;14.40;74.22;100851.91;107648;1254;99252;-61
2023/05/24 04:21:35;;;;;;;18.60;8.70;;;;;;;14.46;74.12;100848.64;107601;1256;112759;-62
2023/05/24 04:24:04;;;;;;;18.10;8.20;;;;;;;14.49;74.06;100852.61;107643;1251;109444;-62
2023/05/24 04:26:33;;;;;;;19.60;9.50;;;;;;;14.54;74.32;100857.28;107613;1254;108401;-60
2023/05/24 04:29:03;;;;;;;17.10;9.00;;;;;;;14.61;74.19;100854.63;107428;1254;99619;-61
2023/05/24 04:31:33;;;;;;;23.30;8.80;;;;;;;14.69;74.26;100856.70;107638;1256;99057;-60
2023/05/24 04:34:01;;;;;;;20.90;9.10;;;;;;;14.78;74.39;100860.27;107590;1251;113702;-60
2023/05/24 04:36:32;;;;;;;18.60;9.20;;;;;;;14.85;74.29;100864.81;107634;1251;110179;-60
2023/05/24 04:39:03;;;;;;;19.80;8.60;;;;;;;14.90;74.21;100863.55;107643;1251;108276;-59
2023/05/24 04:41:34;;;;;;;21.80;9.80;;;;;;;14.94;73.97;100861.09;107587;1251;99297;-59
2023/05/24 04:44:02;;;;;;;26.20;9.20;;;;;;;14.98;73.73;100857.62;107590;1251;99832;-60
2023/05/24 04:46:30;;;;;;;20.90;9.00;;;;;;;15.01;73.70;100861.80;107627;1251;112620;-62
2023/05/24 04:49:00;;;;;;;24.80;9.00;;;;;;;15.07;73.82;100863.79;107636;1251;109046;-60
2023/05/24 04:51:29;;;;;;;12.90;8.60;;;;;;;15.13;74.06;100864.24;107616;1251;108174;-60
2023/05/24 04:53:57;;;;;;;16.30;8.30;;;;;;;15.20;73.95;100864.38;107522;1254;99053;-61
2023/05/24 04:56:26;;;;;;;23.80;8.80;;;;;;;15.27;74.04;100862.64;107630;1254;99201;-60
2023/05/24 04:58:54;;;;;;;20.80;9.80;;;;;;;15.34;74.48;100861.16;107621;1253;113153;-61
2023/05/24 05:01:22;;;;;;;25.50;9.40;;;;;;;15.41;74.31;100862.81;107606;1251;109985;-62
2023/05/24 05:03:50;;;;;;;21.00;9.30;;;;;;;15.49;74.35;100864.89;107503;1254;108354;-60
2023/05/24 05:06:19;;;;;;;23.40;9.10;;;;;;;15.58;74.40;100862.33;107515;1256;99246;-60
2023/05/24 05:08:48;;;;;;;32.00;9.60;;;;;;;15.66;74.39;100866.80;107590;1253;99029;-62
2023/05/24 05:11:17;;;;;;;16.50;9.30;;;;;;;15.72;74.16;100866.31;107588;1254;113161;-61
2023/05/24 05:13:48;;;;;;;38.80;10.30;;;;;;;15.78;74.07;100859.71;107585;1254;108266;-63
2023/05/24 05:16:20;;;;;;;27.40;9.60;;;;;;;15.84;74.15;100864.19;107543;1254;108674;-63
2023/05/24 05:18:49;;;;;;;19.60;8.30;;;;;;;15.91;74.26;100861.76;107583;1253;99185;-65
2023/05/24 05:21:19;;;;;;;30.10;9.00;;;;;;;15.98;74.36;100863.55;107553;1254;98950;-63
2023/05/24 05:23:48;;;;;;;18.10;8.30;;;;;;;16.06;74.35;100860.15;107580;1253;112544;-64
2023/05/24 05:26:18;;;;;;;19.70;7.90;;;;;;;16.09;74.07;100863.91;107580;1251;108414;-62
2023/05/24 05:28:46;;;;;;;18.60;8.60;;;;;;;16.12;73.63;100859.70;107592;1251;106958;-64
2023/05/24 05:31:15;;;;;;;30.50;7.60;;;;;;;16.17;73.40;100860.02;107597;1251;99163;-61
2023/05/24 05:33:43;;;;;;;12.40;7.40;;;;;;;16.25;73.41;100862.79;107573;1253;99070;-60
2023/05/24 05:36:11;;;;;;;15.00;6.60;;;;;;;16.31;73.06;100865.70;107518;1254;112076;-61
2023/05/24 05:38:39;;;;;;;17.80;6.60;;;;;;;16.40;73.07;100861.08;107598;1254;109402;-59
2023/05/24 05:41:20;;;;;;;16.50;7.40;;;;;;;16.48;72.64;100860.23;107570;1254;107654;-61
2023/05/24 05:43:55;;;;;;;15.50;6.70;;;;;;;16.56;72.44;100865.98;107598;1256;99165;-61
2023/05/24 05:46:23;;;;;;;10.80;6.50;;;;;;;16.63;71.92;100866.33;107645;1251;100299;-60
2023/05/24 05:48:52;;;;;;;15.70;7.20;;;;;;;16.72;71.76;100868.92;107535;1254;113752;-62
2023/05/24 05:51:20;;;;;;;17.80;7.30;;;;;;;16.80;71.68;100866.23;107560;1254;109984;-61
2023/05/24 05:53:49;;;;;;;23.40;7.20;;;;;;;16.87;71.38;100868.31;107536;1254;108128;-63
2023/05/24 05:56:17;;;;;;;12.10;7.30;;;;;;;16.96;71.09;100872.77;107591;1253;99074;-62
2023/05/24 05:58:46;;;;;;;14.00;6.70;;;;;;;17.06;70.92;100869.13;107639;1251;99074;-61
2023/05/24 06:01:15;;;;;;;21.10;7.40;;;;;;;17.16;70.52;100868.54;107567;1252;113198;-63
2023/05/24 06:03:43;;;;;;;15.40;6.40;;;;;;;17.26;70.30;100868.48;107568;1253;109108;-61
2023/05/24 06:06:12;;;;;;;18.90;6.50;;;;;;;17.37;69.92;100870.29;107561;1254;107218;-60
2023/05/24 06:08:40;;;;;;;16.60;6.80;;;;;;;17.47;69.71;100874.92;107600;1253;99160;-61
2023/05/24 06:11:08;;;;;;;16.00;6.60;;;;;;;17.56;69.53;100874.59;107611;1252;99046;-62
2023/05/24 06:13:37;;;;;;;17.30;5.80;;;;;;;17.63;69.08;100874.72;107540;1253;113435;-60
2023/05/24 06:16:07;;;;;;;13.40;4.80;;;;;;;17.70;68.57;100878.41;107534;1254;110231;-61
2023/05/24 06:18:36;;;;;;;12.80;4.80;;;;;;;17.77;68.03;100880.10;107543;1254;108658;-60
2023/05/24 06:21:04;;;;;;;10.90;4.60;;;;;;;17.84;67.72;100882.35;107488;1254;99164;-60
2023/05/24 06:23:32;;;;;;;16.20;4.60;;;;;;;17.91;67.31;100883.42;107549;1252;99144;-61
2023/05/24 06:26:01;;;;;;;59.50;9.00;;;;;;;17.97;66.85;100880.86;107537;1254;112308;-61
2023/05/24 06:28:30;;;;;;;15.70;5.40;;;;;;;18.05;66.16;100881.38;107579;1254;108331;-63
2023/05/24 06:30:58;;;;;;;13.20;4.90;;;;;;;18.14;64.79;100881.21;107529;1256;108182;-63
2023/05/24 06:33:26;;;;;;;20.50;5.40;;;;;;;18.25;64.17;100883.75;107545;1256;99269;-61
2023/05/24 06:35:55;;;;;;;11.50;4.40;;;;;;;18.36;63.28;100881.71;107524;1253;99100;-62
2023/05/24 06:38:23;;;;;;;26.70;4.80;;;;;;;18.48;62.61;100880.67;107526;1256;113623;-63
2023/05/24 06:40:51;;;;;;;11.30;4.40;;;;;;;18.58;62.40;100876.18;107500;1253;109636;-66
2023/05/24 06:43:20;;;;;;;12.30;4.40;;;;;;;18.68;62.03;100871.73;107415;1254;107002;-62
2023/05/24 06:45:48;;;;;;;9.30;4.60;;;;;;;18.79;60.88;100871.28;107580;1253;99068;-62
2023/05/24 06:48:17;;;;;;;13.10;4.70;;;;;;;18.89;61.00;100870.45;107536;1253;99057;-62
2023/05/24 06:50:47;;;;;;;9.60;4.60;;;;;;;18.98;60.36;100875.67;107576;1254;112603;-61
2023/05/24 06:53:15;;;;;;;13.90;5.00;;;;;;;19.08;60.19;100875.72;107591;1254;110000;-61
2023/05/24 06:55:43;;;;;;;11.60;4.30;;;;;;;19.19;59.91;100875.02;107548;1256;108142;-63
2023/05/24 06:58:13;;;;;;;9.30;4.70;;;;;;;19.29;59.87;100877.67;107442;1254;99062;-62
2023/05/24 07:00:42;;;;;;;11.80;5.10;;;;;;;19.40;59.58;100879.10;107589;1253;99067;-62
2023/05/24 07:03:12;;;;;;;13.30;4.80;;;;;;;19.49;59.60;100877.27;107572;1254;112988;-61
2023/05/24 07:05:40;;;;;;;7.40;4.00;;;;;;;19.57;59.52;100877.90;107617;1250;109264;-62
2023/05/24 07:08:08;;;;;;;10.70;4.70;;;;;;;19.65;59.26;100878.20;107627;1251;108194;-63
2023/05/24 07:10:37;;;;;;;9.70;3.90;;;;;;;19.74;59.20;100875.94;107616;1251;99170;-61
2023/05/24 07:13:05;;;;;;;22.20;5.50;;;;;;;19.85;58.07;100873.83;107615;1251;99168;-62
2023/05/24 07:15:33;;;;;;;16.80;4.20;;;;;;;19.95;57.38;100877.34;107640;1251;114870;-63
2023/05/24 07:18:02;;;;;;;18.50;5.20;;;;;;;20.03;57.37;100875.83;107640;1251;109842;-62
2023/05/24 07:20:30;;;;;;;12.50;4.50;;;;;;;20.13;56.53;100878.67;107596;1251;107727;-63
2023/05/24 07:23:02;;;;;;;11.40;4.90;;;;;;;20.26;56.40;100880.48;107623;1251;99175;-63
2023/05/24 07:25:39;;;;;;;16.70;4.30;;;;;;;20.40;56.43;100885.58;107616;1256;99291;-63
2023/05/24 07:28:18;;;;;;;9.70;4.20;;;;;;;20.50;56.21;100883.84;107453;1254;113209;-63
2023/05/24 07:30:47;;;;;;;12.10;3.60;;;;;;;20.58;55.95;100886.89;107595;1254;109833;-65
2023/05/24 07:33:16;;;;;;;12.70;4.30;;;;;;;20.69;55.69;100888.34;107585;1251;108325;-62
2023/05/24 07:35:49;;;;;;;13.50;4.00;;;;;;;20.79;55.48;100882.77;107605;1256;99274;-62
2023/05/24 07:38:18;;;;;;;16.00;4.50;;;;;;;20.91;55.08;100884.00;107660;1251;99684;-62
2023/05/24 07:40:47;;;;;;;12.60;4.70;;;;;;;21.02;54.57;100882.38;107567;1254;112768;-62
2023/05/24 07:43:15;;;;;;;16.40;4.40;;;;;;;21.13;53.34;100882.39;107613;1254;108995;-62
2023/05/24 07:45:44;;;;;;;12.80;4.70;;;;;;;21.23;52.92;100882.63;107561;1255;107931;-62
2023/05/24 07:48:13;;;;;;;9.70;3.80;;;;;;;21.34;52.87;100882.47;107516;1254;99150;-62
2023/05/24 07:50:41;;;;;;;9.30;4.00;;;;;;;21.43;51.99;100883.22;107648;1251;99793;-62
2023/05/24 07:53:10;;;;;;;18.40;4.40;;;;;;;21.51;51.75;100886.95;107689;1251;113584;-62
2023/05/24 07:55:39;;;;;;;7.70;3.50;;;;;;;21.62;51.86;100885.02;107624;1254;109656;-63
2023/05/24 07:58:07;;;;;;;6.10;3.60;;;;;;;21.72;50.19;100884.84;107565;1254;107580;-62
2023/05/24 08:00:37;;;;;;;13.10;3.60;;;;;;;21.80;50.41;100888.46;106990;1251;905419;-62
2023/05/24 08:03:06;;;;;;;9.10;3.70;;;;;;;21.90;49.04;100889.29;107640;1251;100885;-62
2023/05/24 08:05:34;;;;;;;10.10;4.00;;;;;;;22.02;48.35;100890.48;107668;1251;113328;-63
2023/05/24 08:08:03;;;;;;;7.80;4.10;;;;;;;22.14;48.63;100887.50;107627;1251;109858;-62
2023/05/24 08:10:31;;;;;;;15.00;3.60;;;;;;;22.26;48.77;100884.78;107606;1252;107945;-62
2023/05/24 08:12:59;;;;;;;14.90;4.00;;;;;;;22.40;48.34;100880.76;107646;1254;99253;-62
2023/05/24 08:15:28;;;;;;;9.80;3.50;;;;;;;22.51;47.46;100878.54;107686;1251;99197;-61
2023/05/24 08:17:56;;;;;;;9.60;3.30;;;;;;;22.61;47.89;100870.71;107617;1251;112606;-61
2023/05/24 08:20:26;;;;;;;10.40;3.70;;;;;;;22.76;47.46;100874.77;107551;1255;109264;-62
2023/05/24 08:22:55;;;;;;;14.40;3.60;;;;;;;22.93;46.93;100876.41;107602;1253;107750;-63
2023/05/24 08:25:24;;;;;;;10.50;3.60;;;;;;;23.12;46.57;100876.39;107600;1253;99047;-63
2023/05/24 08:27:56;;;;;;;7.90;3.70;;;;;;;23.27;45.35;100876.52;107628;1251;99794;-64
2023/05/24 08:30:26;;;;;;;12.50;3.50;;;;;;;23.40;44.99;100878.56;107673;1251;111878;-63
2023/05/24 08:32:54;;;;;;;12.50;4.10;;;;;;;23.53;44.31;100875.88;107593;1252;109532;-61
2023/05/24 08:35:22;;;;;;;12.60;3.70;;;;;;;23.67;43.24;100877.57;107608;1251;107359;-62
2023/05/24 08:37:51;;;;;;;15.30;3.10;;;;;;;23.82;42.32;100877.30;107646;1251;99156;-61
2023/05/24 08:40:19;;;;;;;23.20;3.70;;;;;;;23.96;40.80;100877.90;107594;1251;100581;-65
2023/05/24 08:42:49;;;;;;;15.50;3.20;;;;;;;24.14;39.66;100874.50;107658;1251;112586;-61
2023/05/24 08:45:20;;;;;;;12.10;3.20;;;;;;;24.33;40.19;100874.45;107610;1251;109730;-62
2023/05/24 08:47:50;;;;;;;18.30;3.80;;;;;;;24.48;38.88;100872.00;107633;1251;107768;-61
2023/05/24 08:50:19;;;;;;;8.90;3.10;;;;;;;24.67;39.61;100876.73;107601;1256;99185;-62
2023/05/24 08:52:48;;;;;;;21.80;3.80;;;;;;;24.86;38.82;100877.05;107653;1254;99044;-61
2023/05/24 08:55:17;;;;;;;8.70;3.50;;;;;;;25.06;37.99;100873.35;107621;1251;112611;-63
2023/05/24 08:57:46;;;;;;;7.70;3.40;;;;;;;25.26;37.50;100872.85;107643;1251;109012;-62
2023/05/24 09:00:15;;;;;;;11.90;2.90;;;;;;;25.48;37.00;100872.00;107613;1251;107302;-61
2023/05/24 09:02:45;;;;;;;17.80;3.00;;;;;;;25.68;37.16;100870.35;107607;1251;99170;-60
2023/05/24 09:05:15;;;;;;;5.20;2.50;;;;;;;25.90;36.90;100871.24;107605;1254;99688;-62
2023/05/24 09:07:45;;;;;;;8.40;2.20;;;;;;;25.94;35.37;100875.79;107612;1252;113625;-61
2023/05/24 09:10:14;;;;;;;12.60;2.70;;;;;;;25.88;35.21;100878.31;107560;1254;108291;-63
2023/05/24 09:12:47;;;;;;;5.30;2.40;;;;;;;25.84;35.25;100879.02;107624;1254;108177;-61
2023/05/24 09:15:16;;;;;;;11.70;2.90;;;;;;;25.82;35.38;100878.59;107588;1252;99022;-60
2023/05/24 09:17:44;;;;;;;19.30;3.20;;;;;;;26.00;35.05;100882.97;107616;1254;99169;-61
2023/05/24 09:20:13;;;;;;;7.60;2.50;;;;;;;26.37;33.21;100880.46;107645;1251;113135;-62
2023/05/24 09:22:42;;;;;;;8.20;2.90;;;;;;;26.85;32.32;100877.88;107564;1254;109789;-62
2023/05/24 09:25:13;;;;;;;14.70;2.10;;;;;;;27.39;29.76;100873.58;107616;1252;108296;-63
2023/05/24 09:27:49;;;;;;;17.00;3.40;;;;;;;27.86;26.84;100869.15;107591;1251;99243;-63
2023/05/24 09:30:19;;;;;;;4.30;2.40;;;;;;;28.28;26.26;100873.80;107527;1251;99740;-61
2023/05/24 09:32:59;;;;;;;7.90;2.00;;;;;;;28.67;27.16;100873.45;107583;1255;114638;-62
2023/05/24 09:35:31;;;;;;;10.80;2.60;;;;;;;29.10;26.80;100872.24;107675;1255;110303;-63
2023/05/24 09:38:00;;;;;;;8.90;2.50;;;;;;;29.47;28.11;100863.55;107570;1250;107595;-62
2023/05/24 09:40:29;;;;;;;12.30;2.60;;;;;;;29.85;27.58;100864.42;107532;1254;99168;-62
2023/05/24 09:43:08;;;;;;;4.70;1.60;;;;;;;30.22;27.54;100857.03;107641;1255;99710;-61
2023/05/24 09:45:45;;;;;;;9.80;2.80;;;;;;;30.62;26.08;100856.75;107642;1251;111953;-62
2023/05/24 09:48:19;;;;;;;9.20;2.00;;;;;;;30.90;25.40;100852.51;107467;1259;111480;-62
2023/05/24 09:51:08;;;;;;;3.80;2.30;;;;;;;31.28;25.80;100848.55;107598;1257;108807;-62
2023/05/24 09:53:37;;;;;;;8.60;2.20;;;;;;;31.60;23.08;100850.79;107581;1256;99246;-62
2023/05/24 09:56:09;;;;;;;6.90;2.40;;;;;;;31.37;23.15;100849.70;107620;1252;99047;-61
2023/05/24 09:58:38;;;;;;;4.70;2.20;;;;;;;31.15;23.32;100848.47;107640;1256;112380;-61
2023/05/24 10:01:09;;;;;;;9.30;2.40;;;;;;;31.05;23.50;100848.35;107504;1254;110275;-61
2023/05/24 10:03:38;;;;;;;6.80;2.30;;;;;;;30.74;24.43;100848.99;107647;1254;107098;-62
2023/05/24 10:06:06;;;;;;;9.10;2.50;;;;;;;30.42;25.09;100850.18;107640;1254;99270;-64
2023/05/24 10:08:35;;;;;;;7.70;2.50;;;;;;;30.15;25.00;100850.55;107558;1251;99186;-62
2023/05/24 10:11:04;;;;;;;11.80;3.00;;;;;;;29.82;25.83;100852.45;107549;1254;112534;-61
2023/05/24 10:13:35;;;;;;;6.50;2.10;;;;;;;29.53;26.02;100851.08;107540;1254;110452;-60
2023/05/24 10:16:04;;;;;;;5.90;2.40;;;;;;;29.21;26.06;100848.88;107646;1251;108040;-60
2023/05/24 10:18:32;;;;;;;4.70;2.40;;;;;;;28.92;26.69;100849.65;107595;1251;99610;-60
2023/05/24 10:21:08;;;;;;;9.60;2.40;;;;;;;28.70;26.18;100850.19;107562;1257;99029;-61
2023/05/24 10:23:42;;;;;;;8.90;2.40;;;;;;;28.45;25.84;100847.43;107605;1256;112817;-61
2023/05/24 10:26:13;;;;;;;7.40;2.40;;;;;;;28.21;25.83;100847.98;107637;1251;109536;-63
2023/05/24 10:28:53;;;;;;;13.90;2.80;;;;;;;28.04;26.47;100843.36;107564;1251;108516;-62
2023/05/24 10:31:31;;;;;;;15.10;3.40;;;;;;;27.98;27.17;100845.52;107570;1251;97898;-63
2023/05/24 10:34:02;;;;;;;9.70;2.30;;;;;;;28.05;27.78;100840.24;107609;1251;99047;-62
2023/05/24 10:36:51;;;;;;;11.00;2.60;;;;;;;28.29;27.57;100840.51;107509;1255;113777;-62
2023/05/24 10:39:21;;;;;;;9.30;2.50;;;;;;;28.62;27.37;100839.45;107601;1254;109686;-63
2023/05/24 10:41:50;;;;;;;8.20;2.30;;;;;;;29.70;25.95;100832.16;107548;1255;107713;-60
2023/05/24 10:44:19;;;;;;;8.00;2.00;;;;;;;30.78;24.04;100830.45;107628;1254;99146;-61
2023/05/24 10:47:08;;;;;;;10.90;1.90;;;;;;;31.91;23.04;100825.56;107638;1257;99708;-63
2023/05/24 10:50:03;;;;;;;14.30;2.50;;;;;;;33.05;22.47;100822.66;107662;1253;113657;-61
2023/05/24 10:52:35;;;;;;;6.20;2.00;;;;;;;34.14;21.36;100819.25;107616;1254;109825;-59
2023/05/24 10:55:08;;;;;;;9.40;2.10;;;;;;;34.92;19.95;100815.54;107604;1254;108818;-61
2023/05/24 10:57:38;;;;;;;4.50;2.40;;;;;;;35.37;18.30;100810.27;107615;1254;99153;-61
2023/05/24 11:00:19;;;;;;;7.70;2.10;;;;;;;35.67;18.63;100800.80;107628;1251;99172;-62
2023/05/24 11:03:09;;;;;;;5.90;1.80;;;;;;;36.15;19.51;100804.41;107564;1256;112162;-61
2023/05/24 11:05:46;;;;;;;5.30;1.60;;;;;;;36.12;19.11;100804.77;107611;1253;109507;-63
2023/05/24 11:08:25;;;;;;;5.50;1.60;;;;;;;35.69;19.14;100804.31;107634;1256;106925;-62
2023/05/24 11:11:03;;;;;;;14.30;2.40;;;;;;;36.03;19.36;100803.96;107475;1254;99087;-60
2023/05/24 11:13:56;;;;;;;20.50;2.30;;;;;;;36.82;19.19;100800.96;107632;1253;99076;-61
2023/05/24 11:16:44;;;;;;;9.60;2.20;;;;;;;37.52;18.41;100800.56;107618;1254;112237;-61
2023/05/24 11:19:17;;;;;;;16.30;1.90;;;;;;;38.24;17.92;100798.88;107504;1254;110198;-63
2023/05/24 11:21:47;;;;;;;6.90;1.50;;;;;;;38.87;16.51;100792.58;107480;1255;108437;-62
2023/05/24 11:24:17;;;;;;;6.80;1.60;;;;;;;39.18;16.73;100791.23;107605;1255;99263;-62